sensor_id;sensor_type;location;lat;lon;timestamp;P1;durP1;ratioP1;P2;durP2;ratioP2
1691;SDS011;843;52.054;8.552;2022-08-20T00:01:13;18.00;;;16.10;;
1691;SDS011;843;52.054;8.552;2022-08-20T00:03:40;22.20;;;15.47;;
1691;SDS011;843;52.054;8.552;2022-08-20T00:06:09;17.67;;;15.87;;
1691;SDS011;843;52.054;8.552;2022-08-20T00:08:37;21.43;;;15.30;;
1691;SDS011;843;52.054;8.552;2022-08-20T00:11:05;24.13;;;18.70;;
1691;SDS011;843;52.054;8.552;2022-08-20T00:13:34;22.07;;;19.13;;
1691;SDS011;843;52.054;8.552;2022-08-20T00:16:03;19.00;;;16.63;;
1691;SDS011;843;52.054;8.552;2022-08-20T00:18:30;18.73;;;16.63;;
1691;SDS011;843;52.054;8.552;2022-08-20T00:20:57;19.00;;;16.90;;
1691;SDS011;843;52.054;8.552;2022-08-20T00:23:27;16.20;;;14.50;;
1691;SDS011;843;52.054;8.552;2022-08-20T00:25:53;17.60;;;14.37;;
1691;SDS011;843;52.054;8.552;2022-08-20T00:28:20;16.80;;;13.50;;
1691;SDS011;843;52.054;8.552;2022-08-20T00:30:47;17.13;;;15.23;;
1691;SDS011;843;52.054;8.552;2022-08-20T00:33:16;17.73;;;15.93;;
1691;SDS011;843;52.054;8.552;2022-08-20T00:35:45;16.53;;;14.83;;
1691;SDS011;843;52.054;8.552;2022-08-20T00:38:16;17.13;;;15.37;;
1691;SDS011;843;52.054;8.552;2022-08-20T00:40:46;16.07;;;14.10;;
1691;SDS011;843;52.054;8.552;2022-08-20T00:43:25;20.50;;;15.80;;
1691;SDS011;843;52.054;8.552;2022-08-20T00:45:55;21.07;;;15.87;;
1691;SDS011;843;52.054;8.552;2022-08-20T00:48:23;20.77;;;14.87;;
1691;SDS011;843;52.054;8.552;2022-08-20T00:50:51;17.50;;;14.60;;
1691;SDS011;843;52.054;8.552;2022-08-20T00:53:19;20.10;;;15.33;;
1691;SDS011;843;52.054;8.552;2022-08-20T00:55:48;21.10;;;15.60;;
1691;SDS011;843;52.054;8.552;2022-08-20T00:58:15;20.07;;;15.57;;
1691;SDS011;843;52.054;8.552;2022-08-20T01:00:43;16.83;;;15.07;;
1691;SDS011;843;52.054;8.552;2022-08-20T01:03:11;17.87;;;14.13;;
1691;SDS011;843;52.054;8.552;2022-08-20T01:05:40;15.90;;;13.50;;
1691;SDS011;843;52.054;8.552;2022-08-20T01:08:09;20.43;;;14.33;;
1691;SDS011;843;52.054;8.552;2022-08-20T01:10:36;18.27;;;15.30;;
1691;SDS011;843;52.054;8.552;2022-08-20T01:13:07;17.03;;;14.27;;
1691;SDS011;843;52.054;8.552;2022-08-20T01:15:35;17.00;;;14.07;;
1691;SDS011;843;52.054;8.552;2022-08-20T01:18:02;18.00;;;14.10;;
1691;SDS011;843;52.054;8.552;2022-08-20T01:20:31;17.33;;;14.40;;
1691;SDS011;843;52.054;8.552;2022-08-20T01:23:00;22.20;;;16.00;;
1691;SDS011;843;52.054;8.552;2022-08-20T01:25:52;14.97;;;13.47;;
1691;SDS011;843;52.054;8.552;2022-08-20T01:28:21;18.27;;;15.53;;
1691;SDS011;843;52.054;8.552;2022-08-20T01:30:50;18.23;;;14.77;;
1691;SDS011;843;52.054;8.552;2022-08-20T01:33:17;18.73;;;15.10;;
1691;SDS011;843;52.054;8.552;2022-08-20T01:35:45;17.70;;;13.93;;
1691;SDS011;843;52.054;8.552;2022-08-20T01:38:12;21.13;;;14.90;;
1691;SDS011;843;52.054;8.552;2022-08-20T01:43:33;19.00;;;14.70;;
1691;SDS011;843;52.054;8.552;2022-08-20T01:46:00;18.27;;;13.93;;
1691;SDS011;843;52.054;8.552;2022-08-20T01:48:31;18.17;;;15.03;;
1691;SDS011;843;52.054;8.552;2022-08-20T01:51:00;17.63;;;15.10;;
1691;SDS011;843;52.054;8.552;2022-08-20T01:53:31;15.93;;;12.33;;
1691;SDS011;843;52.054;8.552;2022-08-20T01:56:02;15.60;;;13.97;;
1691;SDS011;843;52.054;8.552;2022-08-20T01:58:32;13.50;;;12.20;;
1691;SDS011;843;52.054;8.552;2022-08-20T02:01:00;19.57;;;15.57;;
1691;SDS011;843;52.054;8.552;2022-08-20T02:03:27;17.10;;;15.30;;
1691;SDS011;843;52.054;8.552;2022-08-20T02:05:54;17.50;;;13.83;;
1691;SDS011;843;52.054;8.552;2022-08-20T02:08:21;16.60;;;14.07;;
1691;SDS011;843;52.054;8.552;2022-08-20T02:10:47;19.83;;;14.97;;
1691;SDS011;843;52.054;8.552;2022-08-20T02:13:14;18.80;;;14.03;;
1691;SDS011;843;52.054;8.552;2022-08-20T02:15:42;16.07;;;13.63;;
1691;SDS011;843;52.054;8.552;2022-08-20T02:18:10;20.93;;;15.93;;
1691;SDS011;843;52.054;8.552;2022-08-20T02:20:37;16.80;;;14.60;;
1691;SDS011;843;52.054;8.552;2022-08-20T02:23:06;19.00;;;14.07;;
1691;SDS011;843;52.054;8.552;2022-08-20T02:25:33;21.17;;;14.30;;
1691;SDS011;843;52.054;8.552;2022-08-20T02:28:03;17.47;;;15.60;;
1691;SDS011;843;52.054;8.552;2022-08-20T02:30:32;19.67;;;14.83;;
1691;SDS011;843;52.054;8.552;2022-08-20T02:33:03;17.53;;;14.47;;
1691;SDS011;843;52.054;8.552;2022-08-20T02:35:33;20.40;;;14.80;;
1691;SDS011;843;52.054;8.552;2022-08-20T02:38:01;15.67;;;13.90;;
1691;SDS011;843;52.054;8.552;2022-08-20T02:40:28;18.63;;;16.63;;
1691;SDS011;843;52.054;8.552;2022-08-20T02:42:55;16.90;;;14.30;;
1691;SDS011;843;52.054;8.552;2022-08-20T02:45:22;21.73;;;17.50;;
1691;SDS011;843;52.054;8.552;2022-08-20T02:47:49;18.97;;;16.47;;
1691;SDS011;843;52.054;8.552;2022-08-20T02:50:19;19.03;;;17.03;;
1691;SDS011;843;52.054;8.552;2022-08-20T02:52:48;22.37;;;19.10;;
1691;SDS011;843;52.054;8.552;2022-08-20T02:55:15;23.00;;;20.27;;
1691;SDS011;843;52.054;8.552;2022-08-20T02:57:42;27.03;;;23.20;;
1691;SDS011;843;52.054;8.552;2022-08-20T03:00:09;24.80;;;21.17;;
1691;SDS011;843;52.054;8.552;2022-08-20T03:02:38;21.90;;;19.60;;
1691;SDS011;843;52.054;8.552;2022-08-20T03:05:05;25.27;;;19.63;;
1691;SDS011;843;52.054;8.552;2022-08-20T03:07:40;27.40;;;22.83;;
1691;SDS011;843;52.054;8.552;2022-08-20T03:10:08;24.20;;;20.53;;
1691;SDS011;843;52.054;8.552;2022-08-20T03:12:35;25.23;;;20.40;;
1691;SDS011;843;52.054;8.552;2022-08-20T03:15:03;28.50;;;24.20;;
1691;SDS011;843;52.054;8.552;2022-08-20T03:17:30;29.93;;;23.50;;
1691;SDS011;843;52.054;8.552;2022-08-20T03:19:57;27.23;;;22.43;;
1691;SDS011;843;52.054;8.552;2022-08-20T03:22:24;32.03;;;24.50;;
1691;SDS011;843;52.054;8.552;2022-08-20T03:24:52;28.17;;;24.50;;
1691;SDS011;843;52.054;8.552;2022-08-20T03:27:19;30.13;;;24.07;;
1691;SDS011;843;52.054;8.552;2022-08-20T03:29:45;33.10;;;25.67;;
1691;SDS011;843;52.054;8.552;2022-08-20T03:32:12;31.90;;;25.67;;
1691;SDS011;843;52.054;8.552;2022-08-20T03:34:38;31.90;;;24.77;;
1691;SDS011;843;52.054;8.552;2022-08-20T03:37:05;27.33;;;23.70;;
1691;SDS011;843;52.054;8.552;2022-08-20T03:39:32;27.03;;;22.60;;
1691;SDS011;843;52.054;8.552;2022-08-20T03:42:00;31.00;;;23.90;;
1691;SDS011;843;52.054;8.552;2022-08-20T03:44:27;27.17;;;23.63;;
1691;SDS011;843;52.054;8.552;2022-08-20T03:46:54;29.97;;;25.60;;
1691;SDS011;843;52.054;8.552;2022-08-20T03:49:20;29.80;;;24.93;;
1691;SDS011;843;52.054;8.552;2022-08-20T03:51:48;29.00;;;25.60;;
1691;SDS011;843;52.054;8.552;2022-08-20T03:54:14;32.97;;;27.77;;
1691;SDS011;843;52.054;8.552;2022-08-20T03:56:41;34.73;;;26.53;;
1691;SDS011;843;52.054;8.552;2022-08-20T03:59:09;31.67;;;26.87;;
1691;SDS011;843;52.054;8.552;2022-08-20T04:01:36;41.30;;;29.53;;
1691;SDS011;843;52.054;8.552;2022-08-20T04:04:03;35.50;;;26.57;;
1691;SDS011;843;52.054;8.552;2022-08-20T04:06:29;30.57;;;25.37;;
1691;SDS011;843;52.054;8.552;2022-08-20T04:08:56;33.57;;;25.83;;
1691;SDS011;843;52.054;8.552;2022-08-20T04:11:23;32.20;;;27.70;;
1691;SDS011;843;52.054;8.552;2022-08-20T04:13:50;37.93;;;29.67;;
1691;SDS011;843;52.054;8.552;2022-08-20T04:16:18;32.97;;;27.63;;
1691;SDS011;843;52.054;8.552;2022-08-20T04:18:45;38.90;;;30.43;;
1691;SDS011;843;52.054;8.552;2022-08-20T04:21:12;36.23;;;30.70;;
1691;SDS011;843;52.054;8.552;2022-08-20T04:23:39;35.70;;;29.30;;
1691;SDS011;843;52.054;8.552;2022-08-20T04:26:06;39.33;;;30.17;;
1691;SDS011;843;52.054;8.552;2022-08-20T04:28:33;41.20;;;29.30;;
1691;SDS011;843;52.054;8.552;2022-08-20T04:31:00;37.20;;;29.60;;
1691;SDS011;843;52.054;8.552;2022-08-20T04:33:29;34.83;;;28.90;;
1691;SDS011;843;52.054;8.552;2022-08-20T04:35:56;39.60;;;32.07;;
1691;SDS011;843;52.054;8.552;2022-08-20T04:38:25;38.73;;;31.30;;
1691;SDS011;843;52.054;8.552;2022-08-20T04:40:52;38.93;;;29.90;;
1691;SDS011;843;52.054;8.552;2022-08-20T04:43:18;39.93;;;31.13;;
1691;SDS011;843;52.054;8.552;2022-08-20T04:45:47;31.63;;;26.80;;
1691;SDS011;843;52.054;8.552;2022-08-20T04:48:14;44.27;;;31.90;;
1691;SDS011;843;52.054;8.552;2022-08-20T04:50:43;43.20;;;33.93;;
1691;SDS011;843;52.054;8.552;2022-08-20T04:53:12;45.10;;;34.30;;
1691;SDS011;843;52.054;8.552;2022-08-20T04:55:41;41.33;;;33.13;;
1691;SDS011;843;52.054;8.552;2022-08-20T04:58:10;38.60;;;31.53;;
1691;SDS011;843;52.054;8.552;2022-08-20T05:00:40;42.10;;;34.63;;
1691;SDS011;843;52.054;8.552;2022-08-20T05:03:11;45.83;;;35.60;;
1691;SDS011;843;52.054;8.552;2022-08-20T05:05:37;35.80;;;28.03;;
1691;SDS011;843;52.054;8.552;2022-08-20T05:08:05;36.07;;;29.03;;
1691;SDS011;843;52.054;8.552;2022-08-20T05:10:32;42.30;;;32.80;;
1691;SDS011;843;52.054;8.552;2022-08-20T05:13:02;38.50;;;32.60;;
1691;SDS011;843;52.054;8.552;2022-08-20T05:15:29;46.17;;;33.60;;
1691;SDS011;843;52.054;8.552;2022-08-20T05:17:57;43.70;;;32.53;;
1691;SDS011;843;52.054;8.552;2022-08-20T05:20:26;42.60;;;31.33;;
1691;SDS011;843;52.054;8.552;2022-08-20T05:22:56;45.90;;;34.43;;
1691;SDS011;843;52.054;8.552;2022-08-20T05:25:24;43.77;;;33.63;;
1691;SDS011;843;52.054;8.552;2022-08-20T05:27:55;35.90;;;30.27;;
1691;SDS011;843;52.054;8.552;2022-08-20T05:30:25;43.10;;;34.33;;
1691;SDS011;843;52.054;8.552;2022-08-20T05:32:52;36.50;;;29.43;;
1691;SDS011;843;52.054;8.552;2022-08-20T05:35:19;37.50;;;30.30;;
1691;SDS011;843;52.054;8.552;2022-08-20T05:37:46;38.27;;;32.30;;
1691;SDS011;843;52.054;8.552;2022-08-20T05:40:13;34.67;;;27.83;;
1691;SDS011;843;52.054;8.552;2022-08-20T05:42:41;36.63;;;29.40;;
1691;SDS011;843;52.054;8.552;2022-08-20T05:45:08;38.00;;;29.57;;
1691;SDS011;843;52.054;8.552;2022-08-20T05:47:37;34.50;;;30.13;;
1691;SDS011;843;52.054;8.552;2022-08-20T05:50:05;40.03;;;30.93;;
1691;SDS011;843;52.054;8.552;2022-08-20T05:52:32;33.57;;;27.90;;
1691;SDS011;843;52.054;8.552;2022-08-20T05:54:59;32.90;;;29.33;;
1691;SDS011;843;52.054;8.552;2022-08-20T05:57:29;41.00;;;34.50;;
1691;SDS011;843;52.054;8.552;2022-08-20T05:59:59;40.97;;;33.77;;
1691;SDS011;843;52.054;8.552;2022-08-20T06:02:26;39.30;;;32.10;;
1691;SDS011;843;52.054;8.552;2022-08-20T06:05:10;38.20;;;31.60;;
1691;SDS011;843;52.054;8.552;2022-08-20T06:07:37;37.00;;;31.90;;
1691;SDS011;843;52.054;8.552;2022-08-20T06:10:05;41.03;;;31.80;;
1691;SDS011;843;52.054;8.552;2022-08-20T06:12:33;36.60;;;30.57;;
1691;SDS011;843;52.054;8.552;2022-08-20T06:15:01;36.77;;;31.97;;
1691;SDS011;843;52.054;8.552;2022-08-20T06:17:28;40.30;;;32.30;;
1691;SDS011;843;52.054;8.552;2022-08-20T06:19:58;37.93;;;31.87;;
1691;SDS011;843;52.054;8.552;2022-08-20T06:22:27;40.50;;;32.03;;
1691;SDS011;843;52.054;8.552;2022-08-20T06:24:53;35.13;;;31.13;;
1691;SDS011;843;52.054;8.552;2022-08-20T06:27:20;39.30;;;31.90;;
1691;SDS011;843;52.054;8.552;2022-08-20T06:29:48;34.83;;;31.03;;
1691;SDS011;843;52.054;8.552;2022-08-20T06:32:16;32.40;;;28.83;;
1691;SDS011;843;52.054;8.552;2022-08-20T06:34:43;32.87;;;28.50;;
1691;SDS011;843;52.054;8.552;2022-08-20T06:37:13;32.47;;;28.60;;
1691;SDS011;843;52.054;8.552;2022-08-20T06:39:42;37.97;;;31.30;;
1691;SDS011;843;52.054;8.552;2022-08-20T06:42:08;33.13;;;29.50;;
1691;SDS011;843;52.054;8.552;2022-08-20T06:44:36;33.07;;;29.53;;
1691;SDS011;843;52.054;8.552;2022-08-20T06:47:03;32.87;;;27.97;;
1691;SDS011;843;52.054;8.552;2022-08-20T06:49:32;33.23;;;27.87;;
1691;SDS011;843;52.054;8.552;2022-08-20T06:51:59;32.73;;;26.87;;
1691;SDS011;843;52.054;8.552;2022-08-20T06:54:26;31.37;;;26.37;;
1691;SDS011;843;52.054;8.552;2022-08-20T06:56:52;34.47;;;28.80;;
1691;SDS011;843;52.054;8.552;2022-08-20T06:59:19;30.53;;;26.03;;
1691;SDS011;843;52.054;8.552;2022-08-20T07:01:46;28.50;;;25.40;;
1691;SDS011;843;52.054;8.552;2022-08-20T07:04:14;29.47;;;25.90;;
1691;SDS011;843;52.054;8.552;2022-08-20T07:06:42;29.20;;;25.13;;
1691;SDS011;843;52.054;8.552;2022-08-20T07:09:08;27.43;;;24.13;;
1691;SDS011;843;52.054;8.552;2022-08-20T07:11:35;26.53;;;22.23;;
1691;SDS011;843;52.054;8.552;2022-08-20T07:14:02;24.00;;;21.10;;
1691;SDS011;843;52.054;8.552;2022-08-20T07:16:29;22.20;;;19.33;;
1691;SDS011;843;52.054;8.552;2022-08-20T07:18:56;21.37;;;19.27;;
1691;SDS011;843;52.054;8.552;2022-08-20T07:21:23;21.30;;;18.50;;
1691;SDS011;843;52.054;8.552;2022-08-20T07:23:51;19.53;;;17.47;;
1691;SDS011;843;52.054;8.552;2022-08-20T07:26:18;15.37;;;13.77;;
1691;SDS011;843;52.054;8.552;2022-08-20T07:28:44;14.50;;;10.87;;
1691;SDS011;843;52.054;8.552;2022-08-20T07:31:11;9.83;;;8.83;;
1691;SDS011;843;52.054;8.552;2022-08-20T07:33:56;9.13;;;8.30;;
1691;SDS011;843;52.054;8.552;2022-08-20T07:36:23;10.70;;;9.60;;
1691;SDS011;843;52.054;8.552;2022-08-20T07:38:51;8.00;;;7.30;;
1691;SDS011;843;52.054;8.552;2022-08-20T07:41:18;9.70;;;8.80;;
1691;SDS011;843;52.054;8.552;2022-08-20T07:43:46;10.37;;;9.47;;
1691;SDS011;843;52.054;8.552;2022-08-20T07:46:13;9.40;;;8.60;;
1691;SDS011;843;52.054;8.552;2022-08-20T07:48:42;9.73;;;8.83;;
1691;SDS011;843;52.054;8.552;2022-08-20T07:51:11;10.07;;;9.17;;
1691;SDS011;843;52.054;8.552;2022-08-20T07:53:38;10.17;;;9.27;;
1691;SDS011;843;52.054;8.552;2022-08-20T07:56:08;10.37;;;9.30;;
1691;SDS011;843;52.054;8.552;2022-08-20T07:58:37;9.30;;;8.40;;
1691;SDS011;843;52.054;8.552;2022-08-20T08:01:05;9.17;;;8.30;;
1691;SDS011;843;52.054;8.552;2022-08-20T08:03:32;7.00;;;6.30;;
1691;SDS011;843;52.054;8.552;2022-08-20T08:05:59;6.07;;;5.57;;
1691;SDS011;843;52.054;8.552;2022-08-20T08:08:26;8.70;;;4.90;;
1691;SDS011;843;52.054;8.552;2022-08-20T08:10:54;6.47;;;5.87;;
1691;SDS011;843;52.054;8.552;2022-08-20T08:13:25;5.73;;;5.23;;
1691;SDS011;843;52.054;8.552;2022-08-20T08:15:52;5.80;;;5.30;;
1691;SDS011;843;52.054;8.552;2022-08-20T08:18:25;5.40;;;5.00;;
1691;SDS011;843;52.054;8.552;2022-08-20T08:20:54;6.80;;;6.30;;
1691;SDS011;843;52.054;8.552;2022-08-20T08:23:22;5.83;;;5.27;;
1691;SDS011;843;52.054;8.552;2022-08-20T08:25:49;6.17;;;5.57;;
1691;SDS011;843;52.054;8.552;2022-08-20T08:28:17;5.50;;;5.00;;
1691;SDS011;843;52.054;8.552;2022-08-20T08:30:46;5.63;;;5.13;;
1691;SDS011;843;52.054;8.552;2022-08-20T08:33:16;6.73;;;6.13;;
1691;SDS011;843;52.054;8.552;2022-08-20T08:35:55;9.13;;;6.67;;
1691;SDS011;843;52.054;8.552;2022-08-20T08:38:23;7.60;;;6.80;;
1691;SDS011;843;52.054;8.552;2022-08-20T08:40:51;7.90;;;7.20;;
1691;SDS011;843;52.054;8.552;2022-08-20T08:43:19;8.17;;;7.37;;
1691;SDS011;843;52.054;8.552;2022-08-20T08:45:49;8.00;;;7.30;;
1691;SDS011;843;52.054;8.552;2022-08-20T08:48:28;7.87;;;7.07;;
1691;SDS011;843;52.054;8.552;2022-08-20T08:50:57;6.50;;;5.87;;
1691;SDS011;843;52.054;8.552;2022-08-20T08:53:25;6.87;;;6.27;;
1691;SDS011;843;52.054;8.552;2022-08-20T08:55:53;8.80;;;6.10;;
1691;SDS011;843;52.054;8.552;2022-08-20T08:58:20;6.47;;;5.80;;
1691;SDS011;843;52.054;8.552;2022-08-20T09:00:49;7.40;;;6.70;;
1691;SDS011;843;52.054;8.552;2022-08-20T09:03:16;7.67;;;6.77;;
1691;SDS011;843;52.054;8.552;2022-08-20T09:05:50;7.80;;;7.00;;
1691;SDS011;843;52.054;8.552;2022-08-20T09:08:22;5.80;;;5.30;;
1691;SDS011;843;52.054;8.552;2022-08-20T09:10:51;6.27;;;5.67;;
1691;SDS011;843;52.054;8.552;2022-08-20T09:13:18;6.47;;;5.87;;
1691;SDS011;843;52.054;8.552;2022-08-20T09:15:44;6.53;;;5.73;;
1691;SDS011;843;52.054;8.552;2022-08-20T09:18:12;6.90;;;6.30;;
1691;SDS011;843;52.054;8.552;2022-08-20T09:20:39;8.37;;;7.57;;
1691;SDS011;843;52.054;8.552;2022-08-20T09:23:06;7.63;;;6.93;;
1691;SDS011;843;52.054;8.552;2022-08-20T09:25:33;8.93;;;8.03;;
1691;SDS011;843;52.054;8.552;2022-08-20T09:27:59;10.97;;;8.83;;
1691;SDS011;843;52.054;8.552;2022-08-20T09:30:28;7.93;;;7.20;;
1691;SDS011;843;52.054;8.552;2022-08-20T09:32:57;9.63;;;8.67;;
1691;SDS011;843;52.054;8.552;2022-08-20T09:35:26;8.50;;;7.80;;
1691;SDS011;843;52.054;8.552;2022-08-20T09:37:53;9.20;;;8.30;;
1691;SDS011;843;52.054;8.552;2022-08-20T09:40:20;7.73;;;6.93;;
1691;SDS011;843;52.054;8.552;2022-08-20T09:42:47;7.40;;;6.70;;
1691;SDS011;843;52.054;8.552;2022-08-20T09:45:14;6.90;;;6.30;;
1691;SDS011;843;52.054;8.552;2022-08-20T09:47:40;6.20;;;5.60;;
1691;SDS011;843;52.054;8.552;2022-08-20T09:50:08;6.67;;;6.07;;
1691;SDS011;843;52.054;8.552;2022-08-20T09:52:40;6.27;;;5.50;;
1691;SDS011;843;52.054;8.552;2022-08-20T09:55:12;6.47;;;5.80;;
1691;SDS011;843;52.054;8.552;2022-08-20T09:57:44;5.80;;;5.23;;
1691;SDS011;843;52.054;8.552;2022-08-20T10:00:12;6.00;;;4.33;;
1691;SDS011;843;52.054;8.552;2022-08-20T10:02:39;5.27;;;4.40;;
1691;SDS011;843;52.054;8.552;2022-08-20T10:05:06;6.10;;;5.50;;
1691;SDS011;843;52.054;8.552;2022-08-20T10:07:34;7.30;;;5.87;;
1691;SDS011;843;52.054;8.552;2022-08-20T10:10:02;6.70;;;5.20;;
1691;SDS011;843;52.054;8.552;2022-08-20T10:12:30;8.07;;;5.70;;
1691;SDS011;843;52.054;8.552;2022-08-20T10:14:56;5.90;;;5.30;;
1691;SDS011;843;52.054;8.552;2022-08-20T10:17:23;8.70;;;6.50;;
1691;SDS011;843;52.054;8.552;2022-08-20T10:19:50;7.93;;;7.23;;
1691;SDS011;843;52.054;8.552;2022-08-20T10:22:16;7.40;;;6.70;;
1691;SDS011;843;52.054;8.552;2022-08-20T10:24:43;8.13;;;7.30;;
1691;SDS011;843;52.054;8.552;2022-08-20T10:27:11;10.20;;;7.00;;
1691;SDS011;843;52.054;8.552;2022-08-20T10:29:38;7.97;;;7.17;;
1691;SDS011;843;52.054;8.552;2022-08-20T10:32:06;11.67;;;8.53;;
1691;SDS011;843;52.054;8.552;2022-08-20T10:34:36;7.97;;;7.20;;
1691;SDS011;843;52.054;8.552;2022-08-20T10:37:02;7.37;;;6.77;;
1691;SDS011;843;52.054;8.552;2022-08-20T10:39:32;9.97;;;9.07;;
1691;SDS011;843;52.054;8.552;2022-08-20T10:41:59;12.07;;;9.90;;
1691;SDS011;843;52.054;8.552;2022-08-20T10:44:27;8.60;;;7.60;;
1691;SDS011;843;52.054;8.552;2022-08-20T10:46:54;8.27;;;7.57;;
1691;SDS011;843;52.054;8.552;2022-08-20T10:49:20;11.07;;;9.13;;
1691;SDS011;843;52.054;8.552;2022-08-20T10:51:47;9.77;;;8.87;;
1691;SDS011;843;52.054;8.552;2022-08-20T10:54:14;7.90;;;7.20;;
1691;SDS011;843;52.054;8.552;2022-08-20T10:56:40;10.07;;;9.10;;
1691;SDS011;843;52.054;8.552;2022-08-20T10:59:07;8.80;;;8.00;;
1691;SDS011;843;52.054;8.552;2022-08-20T11:01:35;8.90;;;7.90;;
1691;SDS011;843;52.054;8.552;2022-08-20T11:04:02;8.63;;;7.60;;
1691;SDS011;843;52.054;8.552;2022-08-20T11:06:29;8.03;;;7.23;;
1691;SDS011;843;52.054;8.552;2022-08-20T11:08:56;8.53;;;7.77;;
1691;SDS011;843;52.054;8.552;2022-08-20T11:11:22;8.70;;;7.60;;
1691;SDS011;843;52.054;8.552;2022-08-20T11:13:49;8.57;;;7.70;;
1691;SDS011;843;52.054;8.552;2022-08-20T11:16:15;8.17;;;6.90;;
1691;SDS011;843;52.054;8.552;2022-08-20T11:18:43;6.27;;;5.67;;
1691;SDS011;843;52.054;8.552;2022-08-20T11:21:10;5.80;;;5.27;;
1691;SDS011;843;52.054;8.552;2022-08-20T11:23:37;5.20;;;4.70;;
1691;SDS011;843;52.054;8.552;2022-08-20T11:26:03;5.30;;;4.73;;
1691;SDS011;843;52.054;8.552;2022-08-20T11:28:30;8.50;;;4.70;;
1691;SDS011;843;52.054;8.552;2022-08-20T11:30:57;7.30;;;5.27;;
1691;SDS011;843;52.054;8.552;2022-08-20T11:33:25;6.03;;;5.50;;
1691;SDS011;843;52.054;8.552;2022-08-20T11:35:53;4.70;;;4.23;;
1691;SDS011;843;52.054;8.552;2022-08-20T11:38:20;5.93;;;5.37;;
1691;SDS011;843;52.054;8.552;2022-08-20T11:40:46;5.80;;;4.60;;
1691;SDS011;843;52.054;8.552;2022-08-20T11:43:13;4.47;;;4.07;;
1691;SDS011;843;52.054;8.552;2022-08-20T11:45:40;6.00;;;4.20;;
1691;SDS011;843;52.054;8.552;2022-08-20T11:48:06;4.90;;;3.70;;
1691;SDS011;843;52.054;8.552;2022-08-20T11:50:33;6.20;;;2.70;;
1691;SDS011;843;52.054;8.552;2022-08-20T11:53:01;4.60;;;2.90;;
1691;SDS011;843;52.054;8.552;2022-08-20T11:55:28;4.93;;;3.03;;
1691;SDS011;843;52.054;8.552;2022-08-20T11:57:54;3.57;;;3.03;;
1691;SDS011;843;52.054;8.552;2022-08-20T12:00:21;4.70;;;3.40;;
1691;SDS011;843;52.054;8.552;2022-08-20T12:02:49;3.03;;;2.80;;
1691;SDS011;843;52.054;8.552;2022-08-20T12:05:16;4.33;;;3.33;;
1691;SDS011;843;52.054;8.552;2022-08-20T12:07:44;5.43;;;2.47;;
1691;SDS011;843;52.054;8.552;2022-08-20T12:10:12;5.10;;;3.33;;
1691;SDS011;843;52.054;8.552;2022-08-20T12:12:39;5.47;;;3.33;;
1691;SDS011;843;52.054;8.552;2022-08-20T12:15:06;4.30;;;3.13;;
1691;SDS011;843;52.054;8.552;2022-08-20T12:17:34;4.63;;;2.30;;
1691;SDS011;843;52.054;8.552;2022-08-20T12:20:03;4.43;;;2.43;;
1691;SDS011;843;52.054;8.552;2022-08-20T12:22:32;4.03;;;2.50;;
1691;SDS011;843;52.054;8.552;2022-08-20T12:24:59;4.43;;;2.80;;
1691;SDS011;843;52.054;8.552;2022-08-20T12:27:28;6.50;;;2.80;;
1691;SDS011;843;52.054;8.552;2022-08-20T12:29:56;4.27;;;2.33;;
1691;SDS011;843;52.054;8.552;2022-08-20T12:32:26;2.67;;;2.37;;
1691;SDS011;843;52.054;8.552;2022-08-20T12:34:53;3.40;;;2.70;;
1691;SDS011;843;52.054;8.552;2022-08-20T12:37:21;3.07;;;2.77;;
1691;SDS011;843;52.054;8.552;2022-08-20T12:39:49;2.67;;;2.47;;
1691;SDS011;843;52.054;8.552;2022-08-20T12:42:17;3.93;;;2.70;;
1691;SDS011;843;52.054;8.552;2022-08-20T12:44:46;4.53;;;2.60;;
1691;SDS011;843;52.054;8.552;2022-08-20T12:47:13;3.17;;;2.47;;
1691;SDS011;843;52.054;8.552;2022-08-20T12:49:42;2.83;;;2.63;;
1691;SDS011;843;52.054;8.552;2022-08-20T12:52:10;3.10;;;2.80;;
1691;SDS011;843;52.054;8.552;2022-08-20T12:54:37;4.43;;;2.90;;
1691;SDS011;843;52.054;8.552;2022-08-20T12:57:04;4.50;;;2.77;;
1691;SDS011;843;52.054;8.552;2022-08-20T12:59:31;4.50;;;3.03;;
1691;SDS011;843;52.054;8.552;2022-08-20T13:01:59;4.57;;;3.43;;
1691;SDS011;843;52.054;8.552;2022-08-20T13:04:26;4.63;;;2.53;;
1691;SDS011;843;52.054;8.552;2022-08-20T13:06:52;5.97;;;3.00;;
1691;SDS011;843;52.054;8.552;2022-08-20T13:09:25;3.20;;;2.63;;
1691;SDS011;843;52.054;8.552;2022-08-20T13:11:52;4.37;;;2.70;;
1691;SDS011;843;52.054;8.552;2022-08-20T13:14:21;7.30;;;2.70;;
1691;SDS011;843;52.054;8.552;2022-08-20T13:16:52;4.03;;;2.67;;
1691;SDS011;843;52.054;8.552;2022-08-20T13:19:21;2.93;;;2.63;;
1691;SDS011;843;52.054;8.552;2022-08-20T13:21:48;4.47;;;2.30;;
1691;SDS011;843;52.054;8.552;2022-08-20T13:24:14;4.10;;;2.70;;
1691;SDS011;843;52.054;8.552;2022-08-20T13:26:41;3.40;;;2.03;;
1691;SDS011;843;52.054;8.552;2022-08-20T13:29:08;2.57;;;2.10;;
1691;SDS011;843;52.054;8.552;2022-08-20T13:31:34;3.20;;;2.33;;
1691;SDS011;843;52.054;8.552;2022-08-20T13:34:01;3.13;;;2.90;;
1691;SDS011;843;52.054;8.552;2022-08-20T13:36:29;5.90;;;2.57;;
1691;SDS011;843;52.054;8.552;2022-08-20T13:38:56;4.20;;;2.60;;
1691;SDS011;843;52.054;8.552;2022-08-20T13:41:22;4.17;;;2.00;;
1691;SDS011;843;52.054;8.552;2022-08-20T13:43:49;4.63;;;2.10;;
1691;SDS011;843;52.054;8.552;2022-08-20T13:46:16;2.70;;;2.30;;
1691;SDS011;843;52.054;8.552;2022-08-20T13:48:43;3.77;;;2.40;;
1691;SDS011;843;52.054;8.552;2022-08-20T13:51:09;2.87;;;2.20;;
1691;SDS011;843;52.054;8.552;2022-08-20T13:53:37;3.00;;;2.60;;
1691;SDS011;843;52.054;8.552;2022-08-20T13:56:04;5.10;;;2.53;;
1691;SDS011;843;52.054;8.552;2022-08-20T13:58:31;4.23;;;2.57;;
1691;SDS011;843;52.054;8.552;2022-08-20T14:00:58;2.90;;;2.27;;
1691;SDS011;843;52.054;8.552;2022-08-20T14:03:25;3.53;;;2.20;;
1691;SDS011;843;52.054;8.552;2022-08-20T14:05:51;3.97;;;2.27;;
1691;SDS011;843;52.054;8.552;2022-08-20T14:08:19;2.20;;;2.00;;
1691;SDS011;843;52.054;8.552;2022-08-20T14:10:48;2.30;;;2.10;;
1691;SDS011;843;52.054;8.552;2022-08-20T14:13:16;5.80;;;2.83;;
1691;SDS011;843;52.054;8.552;2022-08-20T14:15:43;5.93;;;2.73;;
1691;SDS011;843;52.054;8.552;2022-08-20T14:18:09;7.30;;;2.67;;
1691;SDS011;843;52.054;8.552;2022-08-20T14:20:36;3.80;;;1.93;;
1691;SDS011;843;52.054;8.552;2022-08-20T14:23:03;3.57;;;2.20;;
1691;SDS011;843;52.054;8.552;2022-08-20T14:25:30;3.23;;;2.37;;
1691;SDS011;843;52.054;8.552;2022-08-20T14:28:02;6.53;;;2.47;;
1691;SDS011;843;52.054;8.552;2022-08-20T14:30:34;6.00;;;3.00;;
1691;SDS011;843;52.054;8.552;2022-08-20T14:33:01;2.93;;;2.60;;
1691;SDS011;843;52.054;8.552;2022-08-20T14:35:28;5.80;;;2.50;;
1691;SDS011;843;52.054;8.552;2022-08-20T14:37:55;4.13;;;2.57;;
1691;SDS011;843;52.054;8.552;2022-08-20T14:40:23;4.93;;;2.67;;
1691;SDS011;843;52.054;8.552;2022-08-20T14:42:51;4.73;;;2.40;;
1691;SDS011;843;52.054;8.552;2022-08-20T14:45:19;5.17;;;2.50;;
1691;SDS011;843;52.054;8.552;2022-08-20T14:47:47;4.00;;;2.87;;
1691;SDS011;843;52.054;8.552;2022-08-20T14:50:16;5.10;;;2.20;;
1691;SDS011;843;52.054;8.552;2022-08-20T14:52:45;4.53;;;2.87;;
1691;SDS011;843;52.054;8.552;2022-08-20T14:55:13;5.00;;;2.60;;
1691;SDS011;843;52.054;8.552;2022-08-20T14:57:41;3.67;;;2.00;;
1691;SDS011;843;52.054;8.552;2022-08-20T15:00:10;5.07;;;2.67;;
1691;SDS011;843;52.054;8.552;2022-08-20T15:02:41;4.73;;;2.90;;
1691;SDS011;843;52.054;8.552;2022-08-20T15:05:07;4.93;;;2.73;;
1691;SDS011;843;52.054;8.552;2022-08-20T15:07:36;5.43;;;2.80;;
1691;SDS011;843;52.054;8.552;2022-08-20T15:10:05;5.97;;;3.23;;
1691;SDS011;843;52.054;8.552;2022-08-20T15:12:34;4.10;;;2.93;;
1691;SDS011;843;52.054;8.552;2022-08-20T15:15:02;6.03;;;3.07;;
1691;SDS011;843;52.054;8.552;2022-08-20T15:17:31;5.10;;;2.50;;
1691;SDS011;843;52.054;8.552;2022-08-20T15:20:01;7.87;;;3.30;;
1691;SDS011;843;52.054;8.552;2022-08-20T15:22:32;5.13;;;3.03;;